Time;durP1;ratioP1;P1;durP2;ratioP2;P2;SDS_P1;SDS_P2;PMS_P1;PMS_P2;Temp;Humidity;BMP_temperature;BMP_pressure;BME280_temperature;BME280_humidity;BME280_pressure;Samples;Min_cycle;Max_cycle;Signal;HPM_P1;HPM_P2
2023/01/24 00:00:30;;;;;;;18.70;12.70;;;0.60;99.90;;;;;;494003;241;27973;-73
2023/01/24 00:02:32;;;;;;;23.12;13.70;;;0.60;99.90;;;;;;493977;241;28011;-73
2023/01/24 00:04:33;;;;;;;22.10;12.50;;;0.60;99.90;;;;;;493997;241;27525;-73
2023/01/24 00:06:34;;;;;;;22.33;13.30;;;0.60;99.90;;;;;;493989;241;27476;-73
2023/01/24 00:08:35;;;;;;;19.95;12.15;;;0.60;99.90;;;;;;494013;241;27518;-73
2023/01/24 00:10:37;;;;;;;20.30;13.35;;;0.60;99.90;;;;;;494028;241;27869;-74
2023/01/24 00:12:38;;;;;;;19.70;13.00;;;0.60;99.90;;;;;;494038;241;27540;-73
2023/01/24 00:14:39;;;;;;;21.90;13.05;;;0.60;99.90;;;;;;494029;241;28016;-73
2023/01/24 00:16:40;;;;;;;21.10;14.30;;;0.60;99.90;;;;;;493976;237;27983;-73
2023/01/24 00:18:42;;;;;;;22.45;13.05;;;0.60;99.90;;;;;;494018;241;29487;-73
2023/01/24 00:20:43;;;;;;;19.80;13.15;;;0.60;99.90;;;;;;494032;241;27527;-73
2023/01/24 00:22:44;;;;;;;21.70;12.15;;;0.60;99.90;;;;;;494021;241;27485;-73
2023/01/24 00:24:46;;;;;;;20.88;14.30;;;0.60;99.90;;;;;;494012;237;27502;-73
2023/01/24 00:26:47;;;;;;;20.00;12.88;;;0.60;99.90;;;;;;493998;241;27476;-73
2023/01/24 00:28:49;;;;;;;21.95;14.10;;;0.60;99.90;;;;;;494006;241;27501;-73
2023/01/24 00:30:49;;;;;;;22.73;12.95;;;0.60;99.90;;;;;;493953;241;27946;-73
2023/01/24 00:32:50;;;;;;;18.83;12.45;;;0.60;99.90;;;;;;494045;241;27924;-73
2023/01/24 00:34:52;;;;;;;20.67;12.77;;;0.60;99.90;;;;;;494011;241;27504;-74
2023/01/24 00:36:53;;;;;;;18.45;11.65;;;0.60;99.90;;;;;;493977;241;27469;-73
2023/01/24 00:38:54;;;;;;;23.05;13.80;;;0.60;99.90;;;;;;494012;241;27509;-73
2023/01/24 00:40:55;;;;;;;22.92;13.70;;;0.60;99.90;;;;;;494030;241;27506;-74
2023/01/24 00:42:57;;;;;;;22.65;13.88;;;0.60;99.90;;;;;;494054;241;27485;-73
2023/01/24 00:44:58;;;;;;;24.95;13.85;;;0.60;99.90;;;;;;494027;241;27510;-73
2023/01/24 00:46:59;;;;;;;20.77;12.60;;;0.60;99.90;;;;;;494045;241;27904;-73
2023/01/24 00:49:00;;;;;;;18.60;13.13;;;0.60;99.90;;;;;;494008;241;29124;-73
2023/01/24 00:51:02;;;;;;;26.62;14.82;;;0.60;99.90;;;;;;494009;241;27606;-73
2023/01/24 00:53:03;;;;;;;23.02;13.85;;;0.60;99.90;;;;;;494061;241;27564;-73
2023/01/24 00:55:04;;;;;;;22.37;14.10;;;0.50;99.90;;;;;;494045;241;27660;-73
2023/01/24 00:57:05;;;;;;;24.27;14.23;;;0.60;99.90;;;;;;493993;241;27560;-73
2023/01/24 00:59:07;;;;;;;23.75;14.77;;;0.50;99.90;;;;;;493907;241;27585;-73
2023/01/24 01:01:08;;;;;;;22.70;14.25;;;0.50;99.90;;;;;;493975;241;27461;-74
2023/01/24 01:03:09;;;;;;;25.12;13.65;;;0.50;99.90;;;;;;493961;241;27926;-73
2023/01/24 01:05:10;;;;;;;23.38;13.68;;;0.50;99.90;;;;;;493958;241;28147;-73
2023/01/24 01:07:12;;;;;;;23.90;13.93;;;0.50;99.90;;;;;;493891;241;27490;-73
2023/01/24 01:09:13;;;;;;;23.55;14.40;;;0.50;99.90;;;;;;493887;241;27538;-73
2023/01/24 01:11:14;;;;;;;21.30;13.80;;;0.50;99.90;;;;;;493893;237;27444;-73
2023/01/24 01:13:16;;;;;;;27.58;15.52;;;0.50;99.90;;;;;;493973;241;27882;-73
2023/01/24 01:15:17;;;;;;;22.42;14.07;;;0.50;99.90;;;;;;493969;241;27588;-73
2023/01/24 01:17:18;;;;;;;27.00;15.88;;;0.50;99.90;;;;;;493980;241;27914;-73
2023/01/24 01:19:19;;;;;;;23.00;14.13;;;0.50;99.90;;;;;;493978;241;28057;-73
2023/01/24 01:21:21;;;;;;;25.95;14.40;;;0.50;99.90;;;;;;493981;241;27453;-73
2023/01/24 01:23:22;;;;;;;23.35;14.18;;;0.50;99.90;;;;;;494003;241;27529;-73
2023/01/24 01:25:23;;;;;;;22.17;14.32;;;0.40;99.90;;;;;;494028;241;27630;-73
2023/01/24 01:27:24;;;;;;;20.52;13.32;;;0.50;99.90;;;;;;494020;241;27511;-74
2023/01/24 01:29:26;;;;;;;28.12;14.93;;;0.50;99.90;;;;;;493986;241;27525;-73
2023/01/24 01:31:27;;;;;;;27.73;16.02;;;0.40;99.90;;;;;;494016;241;27466;-73
2023/01/24 01:33:28;;;;;;;23.38;14.43;;;0.50;99.90;;;;;;493985;241;27942;-73
2023/01/24 01:35:29;;;;;;;21.05;13.32;;;0.40;99.90;;;;;;494024;241;28137;-73
2023/01/24 01:37:31;;;;;;;25.52;14.77;;;0.50;99.90;;;;;;494023;241;27575;-73
2023/01/24 01:39:32;;;;;;;28.45;15.10;;;0.40;99.90;;;;;;494033;241;27512;-73
2023/01/24 01:41:33;;;;;;;25.50;13.80;;;0.50;99.90;;;;;;494015;241;27460;-73
2023/01/24 01:43:34;;;;;;;25.60;14.87;;;0.40;99.90;;;;;;493988;241;27605;-73
2023/01/24 01:45:36;;;;;;;22.35;14.05;;;0.50;99.90;;;;;;494014;241;27501;-73
2023/01/24 01:47:37;;;;;;;22.17;15.05;;;0.40;99.90;;;;;;494037;241;27467;-73
2023/01/24 01:49:38;;;;;;;23.27;14.43;;;0.40;99.90;;;;;;494017;241;27961;-73
2023/01/24 01:51:39;;;;;;;25.08;15.68;;;0.50;99.90;;;;;;494035;241;29084;-73
2023/01/24 01:53:41;;;;;;;25.00;14.60;;;0.50;99.90;;;;;;494042;241;27505;-73
2023/01/24 01:55:42;;;;;;;22.85;14.52;;;0.40;99.90;;;;;;494041;241;27622;-73
2023/01/24 01:57:43;;;;;;;24.77;14.80;;;0.50;99.90;;;;;;494029;241;27473;-73
2023/01/24 01:59:44;;;;;;;23.45;14.02;;;0.50;99.90;;;;;;494041;241;27528;-73
2023/01/24 02:01:46;;;;;;;23.83;13.93;;;0.40;99.90;;;;;;494017;241;27466;-73
2023/01/24 02:03:47;;;;;;;23.20;13.48;;;0.40;99.90;;;;;;493996;241;27918;-73
2023/01/24 02:05:48;;;;;;;23.98;14.48;;;0.50;99.90;;;;;;494015;241;28011;-74
2023/01/24 02:07:49;;;;;;;22.15;13.85;;;0.50;99.90;;;;;;493974;241;28041;-74
2023/01/24 02:09:51;;;;;;;24.02;15.75;;;0.40;99.90;;;;;;494030;241;27603;-73
2023/01/24 02:11:52;;;;;;;22.30;15.02;;;0.50;99.90;;;;;;493993;241;27501;-73
2023/01/24 02:16:02;;;;;;;21.62;13.52;;;0.40;99.90;;;;;;493955;241;27522;-74
2023/01/24 02:16:04;;;;;;;23.92;14.50;;;0.50;99.90;;;;;;492236;239;27977;-73
2023/01/24 02:18:05;;;;;;;24.77;14.73;;;0.50;99.90;;;;;;494013;241;27526;-73
2023/01/24 02:20:06;;;;;;;25.00;15.00;;;0.40;99.90;;;;;;494001;241;27570;-73
2023/01/24 02:22:07;;;;;;;23.90;13.55;;;0.40;99.90;;;;;;493993;241;27583;-73
2023/01/24 02:24:09;;;;;;;25.12;15.38;;;0.50;99.90;;;;;;494016;241;27518;-73
2023/01/24 02:26:10;;;;;;;27.65;15.25;;;0.40;99.90;;;;;;494032;241;27591;-73
2023/01/24 02:28:11;;;;;;;21.45;14.20;;;0.40;99.90;;;;;;494000;241;27505;-73
2023/01/24 02:30:12;;;;;;;21.48;13.93;;;0.50;99.90;;;;;;493987;241;28000;-73
2023/01/24 02:32:14;;;;;;;22.70;13.38;;;0.50;99.90;;;;;;493930;241;28097;-73
2023/01/24 02:34:15;;;;;;;22.85;14.20;;;0.50;99.90;;;;;;493951;241;27510;-73
2023/01/24 02:36:16;;;;;;;22.80;13.62;;;0.50;99.90;;;;;;494027;241;27543;-73
2023/01/24 02:38:17;;;;;;;26.48;16.12;;;0.50;99.90;;;;;;493991;241;27522;-73
2023/01/24 02:40:19;;;;;;;20.80;13.85;;;0.50;99.90;;;;;;494012;241;27477;-73
2023/01/24 02:42:20;;;;;;;26.02;14.87;;;0.50;99.90;;;;;;494009;241;27497;-74
2023/01/24 02:44:21;;;;;;;21.87;12.93;;;0.50;99.90;;;;;;494003;241;28035;-73
2023/01/24 02:46:22;;;;;;;23.77;14.68;;;0.50;99.90;;;;;;494002;241;28079;-73
2023/01/24 02:48:24;;;;;;;24.10;14.13;;;0.40;99.90;;;;;;494031;239;27983;-73
2023/01/24 02:50:25;;;;;;;24.33;14.35;;;0.50;99.90;;;;;;494003;241;27545;-73
2023/01/24 02:54:46;;;;;;;21.05;13.73;;;0.50;99.90;;;;;;493954;241;27528;-73
2023/01/24 02:59:07;;;;;;;21.30;14.60;;;0.50;99.90;;;;;;493961;241;28040;-72
2023/01/24 03:01:08;;;;;;;23.48;15.27;;;0.50;99.90;;;;;;493987;241;29095;-72
2023/01/24 03:03:09;;;;;;;23.65;14.25;;;0.50;99.90;;;;;;494007;241;27474;-73
2023/01/24 03:05:10;;;;;;;25.05;15.15;;;0.50;99.90;;;;;;494002;241;27521;-72
2023/01/24 03:07:12;;;;;;;26.42;15.10;;;0.50;99.90;;;;;;494016;241;27570;-73
2023/01/24 03:09:19;;;;;;;20.62;13.90;;;0.50;99.90;;;;;;494032;241;27509;-73
2023/01/24 03:11:20;;;;;;;18.62;12.55;;;0.50;99.90;;;;;;494021;241;27508;-72
2023/01/24 03:34:33;;;;;;;22.83;13.40;;;0.50;99.90;;;;;;494022;241;27516;-73
2023/01/24 03:36:34;;;;;;;25.75;14.82;;;0.40;99.90;;;;;;494038;241;27474;-73
2023/01/24 03:40:55;;;;;;;23.20;14.30;;;0.40;99.90;;;;;;493998;241;27508;-73
2023/01/24 03:42:56;;;;;;;27.10;14.90;;;0.40;99.90;;;;;;493972;241;27470;-73
2023/01/24 03:44:57;;;;;;;23.73;14.80;;;0.40;99.90;;;;;;494007;241;28064;-73
2023/01/24 03:46:59;;;;;;;25.50;15.40;;;0.40;99.90;;;;;;494001;241;27917;-73
2023/01/24 03:49:00;;;;;;;23.42;14.50;;;0.40;99.90;;;;;;493984;241;27506;-73
2023/01/24 03:53:21;;;;;;;24.17;15.05;;;0.40;99.90;;;;;;494013;241;27551;-73
2023/01/24 03:55:24;;;;;;;24.30;15.88;;;0.40;99.90;;;;;;493997;241;27585;-73
2023/01/24 03:57:23;;;;;;;22.62;14.32;;;0.40;99.90;;;;;;493862;237;28189;-73
2023/01/24 03:59:24;;;;;;;23.85;14.50;;;0.40;99.90;;;;;;493979;237;29011;-73
2023/01/24 04:01:26;;;;;;;23.87;14.07;;;0.40;99.90;;;;;;493992;241;27513;-75
2023/01/24 04:03:27;;;;;;;22.77;14.82;;;0.40;99.90;;;;;;494014;241;27471;-74
2023/01/24 04:05:28;;;;;;;23.85;15.18;;;0.40;99.90;;;;;;493989;241;27510;-73
2023/01/24 04:07:29;;;;;;;23.85;14.25;;;0.40;99.90;;;;;;493975;241;27536;-73
2023/01/24 04:09:31;;;;;;;22.58;14.43;;;0.40;99.90;;;;;;494016;241;27486;-72
2023/01/24 04:11:32;;;;;;;24.98;15.15;;;0.30;99.90;;;;;;493991;241;27509;-73
2023/01/24 04:13:33;;;;;;;26.33;15.80;;;0.40;99.90;;;;;;493991;241;28004;-73
2023/01/24 04:15:35;;;;;;;25.08;15.57;;;0.40;99.90;;;;;;493971;237;28011;-73
2023/01/24 04:17:36;;;;;;;24.60;15.52;;;0.40;99.90;;;;;;493959;239;27500;-73
2023/01/24 04:19:37;;;;;;;23.05;14.00;;;0.40;99.90;;;;;;494003;241;27474;-73
2023/01/24 04:21:38;;;;;;;24.25;15.40;;;0.40;99.90;;;;;;493996;241;27622;-73
2023/01/24 04:23:40;;;;;;;23.52;13.80;;;0.40;99.90;;;;;;493983;241;27587;-73
2023/01/24 04:25:41;;;;;;;25.55;14.95;;;0.40;99.90;;;;;;493960;241;27506;-73
2023/01/24 04:27:42;;;;;;;21.73;14.82;;;0.40;99.90;;;;;;493937;241;28060;-73
2023/01/24 04:29:43;;;;;;;26.25;14.45;;;0.40;99.90;;;;;;494012;241;27964;-73
2023/01/24 04:31:45;;;;;;;25.27;14.57;;;0.40;99.90;;;;;;494010;241;27973;-73
2023/01/24 04:33:46;;;;;;;23.00;13.60;;;0.40;99.90;;;;;;493983;241;27541;-73
2023/01/24 04:35:47;;;;;;;22.30;14.45;;;0.40;99.90;;;;;;494004;241;27560;-73
2023/01/24 04:37:48;;;;;;;23.00;14.95;;;0.40;99.90;;;;;;493968;241;27865;-73
2023/01/24 04:39:50;;;;;;;22.35;14.98;;;0.40;99.90;;;;;;493995;241;27479;-73
2023/01/24 04:41:51;;;;;;;22.50;14.30;;;0.40;99.90;;;;;;493969;241;27508;-73
2023/01/24 04:43:52;;;;;;;22.87;13.50;;;0.40;99.90;;;;;;493988;241;27894;-73
2023/01/24 04:45:53;;;;;;;21.20;13.73;;;0.30;99.90;;;;;;493948;241;28057;-73
2023/01/24 04:47:55;;;;;;;27.85;14.68;;;0.40;99.90;;;;;;493942;241;27532;-73
2023/01/24 04:49:56;;;;;;;20.80;13.20;;;0.40;99.90;;;;;;494010;241;27475;-73
2023/01/24 04:51:57;;;;;;;23.80;14.15;;;0.30;99.90;;;;;;494008;241;27489;-74
2023/01/24 04:53:58;;;;;;;22.42;14.18;;;0.30;99.90;;;;;;493983;241;27470;-73
2023/01/24 04:56:00;;;;;;;24.95;16.20;;;0.40;99.90;;;;;;493957;241;27617;-73
2023/01/24 04:58:01;;;;;;;24.75;15.18;;;0.40;99.90;;;;;;494025;237;27549;-74
2023/01/24 05:00:03;;;;;;;21.95;13.85;;;0.30;99.90;;;;;;494001;241;28010;-73
2023/01/24 05:02:04;;;;;;;22.13;14.40;;;0.40;99.90;;;;;;494028;241;28092;-73
2023/01/24 05:04:05;;;;;;;25.75;15.65;;;0.30;99.90;;;;;;494005;241;27450;-73
2023/01/24 05:06:06;;;;;;;28.40;16.00;;;0.30;99.90;;;;;;493990;241;27628;-73
2023/01/24 05:08:07;;;;;;;25.55;15.05;;;0.30;99.90;;;;;;493987;241;27569;-73
2023/01/24 05:10:08;;;;;;;25.90;15.63;;;0.30;99.90;;;;;;494026;237;27482;-73
2023/01/24 05:12:10;;;;;;;24.10;15.55;;;0.30;99.90;;;;;;494033;237;27500;-73
2023/01/24 05:14:11;;;;;;;25.70;14.57;;;0.40;99.90;;;;;;493993;241;27553;-73
2023/01/24 05:16:12;;;;;;;25.33;16.75;;;0.40;99.90;;;;;;493994;241;28070;-73
2023/01/24 05:18:13;;;;;;;29.12;18.02;;;0.30;99.90;;;;;;494029;237;29256;-73
2023/01/24 05:20:15;;;;;;;23.38;16.55;;;0.30;99.90;;;;;;494007;241;27466;-73
2023/01/24 05:22:16;;;;;;;28.30;15.77;;;0.40;99.90;;;;;;493995;241;27490;-73
2023/01/24 05:24:18;;;;;;;23.65;14.52;;;0.40;99.90;;;;;;494016;241;27473;-73
2023/01/24 05:26:18;;;;;;;26.50;15.63;;;0.30;99.90;;;;;;494005;241;27517;-73
2023/01/24 05:28:20;;;;;;;26.23;14.70;;;0.40;99.90;;;;;;494039;237;27494;-73
2023/01/24 05:30:21;;;;;;;24.27;15.05;;;0.40;99.90;;;;;;494034;241;27907;-73
2023/01/24 05:32:22;;;;;;;22.50;14.70;;;0.40;99.90;;;;;;493999;241;27983;-73
2023/01/24 05:34:24;;;;;;;25.08;14.45;;;0.40;99.90;;;;;;494009;241;27517;-73
2023/01/24 05:36:25;;;;;;;24.45;14.10;;;0.30;99.90;;;;;;494026;241;27523;-73
2023/01/24 05:38:26;;;;;;;22.20;13.88;;;0.30;99.90;;;;;;494012;241;27465;-73
2023/01/24 05:40:27;;;;;;;25.45;16.10;;;0.30;99.90;;;;;;494008;241;27598;-73
2023/01/24 05:42:29;;;;;;;25.33;14.63;;;0.30;99.90;;;;;;494011;241;27528;-73
2023/01/24 05:44:30;;;;;;;24.83;14.43;;;0.30;99.90;;;;;;494027;241;27475;-73
2023/01/24 05:46:31;;;;;;;23.38;15.10;;;0.30;99.90;;;;;;494026;241;27988;-73
2023/01/24 05:48:32;;;;;;;22.33;15.00;;;0.30;99.90;;;;;;494036;241;27929;-73
2023/01/24 05:50:34;;;;;;;24.30;15.57;;;0.30;99.90;;;;;;494019;241;27630;-73
2023/01/24 05:52:35;;;;;;;27.48;15.00;;;0.30;99.90;;;;;;494018;241;27593;-73
2023/01/24 05:54:36;;;;;;;24.58;15.05;;;0.30;99.90;;;;;;494020;241;27454;-73
2023/01/24 05:56:37;;;;;;;26.12;15.23;;;0.20;99.90;;;;;;494016;241;27520;-73
2023/01/24 05:58:39;;;;;;;24.67;16.30;;;0.20;99.90;;;;;;494034;241;27572;-73
2023/01/24 06:00:40;;;;;;;24.33;15.32;;;0.20;99.90;;;;;;493960;241;27485;-72
2023/01/24 06:02:41;;;;;;;28.85;15.50;;;0.20;99.90;;;;;;494052;241;28230;-73
2023/01/24 06:04:42;;;;;;;29.05;15.25;;;0.20;99.90;;;;;;494006;241;27918;-73
2023/01/24 06:06:44;;;;;;;26.85;15.25;;;0.20;99.90;;;;;;494032;241;27515;-73
2023/01/24 06:08:45;;;;;;;28.12;16.80;;;0.20;99.90;;;;;;494023;241;27465;-73
2023/01/24 06:10:46;;;;;;;28.70;16.55;;;0.20;99.90;;;;;;494059;241;27482;-73
2023/01/24 06:12:47;;;;;;;28.87;17.92;;;0.20;99.90;;;;;;494048;241;27514;-73
2023/01/24 06:14:49;;;;;;;30.20;16.55;;;0.20;99.90;;;;;;493988;241;27541;-73
2023/01/24 06:16:50;;;;;;;27.55;16.05;;;0.20;99.90;;;;;;494024;241;27996;-73
2023/01/24 06:18:51;;;;;;;29.70;16.48;;;0.20;99.90;;;;;;493992;241;28681;-73
2023/01/24 06:20:55;;;;;;;23.83;15.13;;;0.10;99.90;;;;;;494023;241;27932;-73
2023/01/24 06:22:54;;;;;;;23.85;15.32;;;0.20;99.90;;;;;;493863;241;27519;-73
2023/01/24 06:24:55;;;;;;;26.67;16.55;;;0.20;99.90;;;;;;494001;241;27486;-73
2023/01/24 06:26:56;;;;;;;26.75;15.90;;;0.20;99.90;;;;;;493992;241;27531;-73
2023/01/24 06:28:57;;;;;;;35.10;18.37;;;0.20;99.90;;;;;;493996;241;27585;-73
2023/01/24 06:30:59;;;;;;;28.67;16.80;;;0.20;99.90;;;;;;494033;241;27471;-73
2023/01/24 06:33:02;;;;;;;24.58;16.00;;;0.20;99.90;;;;;;494023;241;27966;-73
2023/01/24 06:35:04;;;;;;;29.85;16.92;;;0.10;99.90;;;;;;493832;241;29101;-73
2023/01/24 06:37:02;;;;;;;31.87;16.15;;;0.20;99.90;;;;;;493757;241;27492;-73
2023/01/24 06:39:04;;;;;;;29.40;17.50;;;0.20;99.90;;;;;;493989;241;27568;-73
2023/01/24 06:41:05;;;;;;;33.40;16.60;;;0.20;99.90;;;;;;494001;241;27539;-73
2023/01/24 06:43:06;;;;;;;28.42;16.83;;;0.20;99.90;;;;;;494025;241;27549;-73
2023/01/24 06:45:08;;;;;;;26.35;16.90;;;0.20;99.90;;;;;;494011;241;27485;-73
2023/01/24 06:47:10;;;;;;;30.42;18.15;;;0.20;99.90;;;;;;493995;241;27514;-73
2023/01/24 06:49:10;;;;;;;26.60;15.90;;;0.20;99.90;;;;;;493965;241;28752;-74
2023/01/24 06:51:12;;;;;;;28.38;16.12;;;0.20;99.90;;;;;;494014;241;29026;-73
2023/01/24 06:53:14;;;;;;;27.40;15.60;;;0.20;99.90;;;;;;493985;241;27629;-73
2023/01/24 06:55:14;;;;;;;28.50;16.30;;;0.20;99.90;;;;;;493942;241;27512;-73
2023/01/24 06:57:15;;;;;;;27.87;15.60;;;0.20;99.90;;;;;;493998;241;27510;-73
2023/01/24 06:59:16;;;;;;;26.42;16.12;;;0.20;99.90;;;;;;493995;241;27479;-73
2023/01/24 07:01:18;;;;;;;28.10;17.60;;;0.20;99.90;;;;;;493999;241;27488;-73
2023/01/24 07:03:19;;;;;;;24.80;15.30;;;0.20;99.90;;;;;;494011;241;27509;-73
2023/01/24 07:05:20;;;;;;;29.45;16.20;;;0.20;99.90;;;;;;494003;241;27926;-73
2023/01/24 07:07:21;;;;;;;28.20;15.65;;;0.20;99.90;;;;;;494005;238;28016;-73
2023/01/24 07:09:23;;;;;;;34.75;17.42;;;0.20;99.90;;;;;;494029;241;27520;-73
2023/01/24 07:11:24;;;;;;;24.40;15.25;;;0.20;99.90;;;;;;494007;241;27513;-73
2023/01/24 07:13:25;;;;;;;21.98;14.32;;;0.20;99.90;;;;;;494011;241;27505;-73
2023/01/24 07:15:26;;;;;;;27.75;15.82;;;0.20;99.90;;;;;;493990;241;27469;-73
2023/01/24 07:17:28;;;;;;;27.67;15.50;;;0.30;99.90;;;;;;494015;241;27493;-73
2023/01/24 07:19:29;;;;;;;27.50;15.70;;;0.30;99.90;;;;;;494053;241;29030;-73
2023/01/24 07:21:30;;;;;;;29.52;16.23;;;0.30;99.90;;;;;;494018;241;28102;-73
2023/01/24 07:23:32;;;;;;;26.65;15.40;;;0.20;99.90;;;;;;494049;241;27509;-73
2023/01/24 07:25:34;;;;;;;27.65;16.25;;;0.30;99.90;;;;;;494028;241;27468;-73
2023/01/24 07:27:34;;;;;;;28.77;16.30;;;0.20;99.90;;;;;;493904;241;27593;-73
2023/01/24 07:29:35;;;;;;;25.88;14.68;;;0.30;99.90;;;;;;494029;241;27473;-73
2023/01/24 07:31:36;;;;;;;25.27;15.25;;;0.20;99.90;;;;;;493982;241;27518;-74
2023/01/24 07:33:38;;;;;;;22.67;15.25;;;0.20;99.90;;;;;;494030;241;27588;-73
2023/01/24 07:35:39;;;;;;;23.85;14.93;;;0.30;99.90;;;;;;493996;241;27916;-73
2023/01/24 07:37:40;;;;;;;29.02;15.50;;;0.30;99.90;;;;;;493962;241;29149;-73
2023/01/24 07:39:41;;;;;;;24.67;15.70;;;0.20;99.90;;;;;;494012;241;27512;-73
2023/01/24 07:41:43;;;;;;;25.52;14.95;;;0.30;99.90;;;;;;494010;241;27494;-73
2023/01/24 07:43:44;;;;;;;29.65;16.23;;;0.30;99.90;;;;;;493974;241;27624;-73
2023/01/24 07:45:45;;;;;;;25.65;16.05;;;0.30;99.90;;;;;;493999;241;27492;-73
2023/01/24 07:47:47;;;;;;;29.42;15.85;;;0.30;99.90;;;;;;493979;241;27510;-73
2023/01/24 07:49:48;;;;;;;26.37;14.50;;;0.30;99.90;;;;;;493968;241;27516;-73
2023/01/24 07:51:49;;;;;;;23.92;15.10;;;0.30;99.90;;;;;;493917;241;27961;-73
2023/01/24 07:53:50;;;;;;;21.58;13.82;;;0.30;99.90;;;;;;494026;241;28075;-73
2023/01/24 07:55:51;;;;;;;23.33;14.45;;;0.30;99.90;;;;;;493993;241;27471;-73
2023/01/24 07:57:53;;;;;;;25.05;14.43;;;0.30;99.90;;;;;;493987;241;27518;-73
2023/01/24 07:59:54;;;;;;;22.40;14.05;;;0.30;99.90;;;;;;493989;241;27572;-73
2023/01/24 08:01:55;;;;;;;26.33;14.93;;;0.30;99.90;;;;;;493993;241;27502;-73
2023/01/24 08:03:57;;;;;;;26.52;16.40;;;0.30;99.90;;;;;;494008;237;27602;-73
2023/01/24 08:05:58;;;;;;;29.45;14.80;;;0.30;99.90;;;;;;493987;241;27953;-73
2023/01/24 08:07:59;;;;;;;22.87;13.48;;;0.30;99.90;;;;;;493978;241;27994;-73
2023/01/24 08:10:00;;;;;;;22.23;14.82;;;0.30;99.90;;;;;;493992;241;27899;-73
2023/01/24 08:12:02;;;;;;;21.20;13.73;;;0.40;99.90;;;;;;493971;241;27497;-73
2023/01/24 08:14:03;;;;;;;22.83;14.13;;;0.40;99.90;;;;;;493988;241;27512;-73
2023/01/24 08:16:04;;;;;;;28.40;16.23;;;0.30;99.90;;;;;;494005;241;27627;-74
2023/01/24 08:18:05;;;;;;;25.27;14.50;;;0.30;99.90;;;;;;494001;241;27641;-73
2023/01/24 08:20:07;;;;;;;29.52;16.05;;;0.30;99.90;;;;;;493953;241;27485;-73
2023/01/24 08:22:08;;;;;;;24.33;15.10;;;0.40;99.90;;;;;;493960;241;27959;-73
2023/01/24 08:24:09;;;;;;;31.60;16.87;;;0.40;99.90;;;;;;494016;241;29105;-73
2023/01/24 08:26:10;;;;;;;26.52;14.90;;;0.40;99.90;;;;;;494007;241;27565;-73
2023/01/24 08:28:12;;;;;;;24.05;15.05;;;0.50;99.90;;;;;;493995;237;27635;-73
2023/01/24 08:30:13;;;;;;;24.45;14.65;;;0.40;99.90;;;;;;494002;241;27463;-74
2023/01/24 08:32:14;;;;;;;30.85;16.33;;;0.50;99.90;;;;;;494002;241;27514;-73
2023/01/24 08:34:15;;;;;;;24.00;14.98;;;0.50;99.90;;;;;;494024;241;27523;-73
2023/01/24 08:36:19;;;;;;;24.70;15.38;;;0.50;99.90;;;;;;494018;241;27537;-73
2023/01/24 08:38:18;;;;;;;23.05;15.05;;;0.50;99.90;;;;;;493899;241;28086;-73
2023/01/24 08:40:19;;;;;;;22.10;14.60;;;0.50;99.90;;;;;;494029;241;27945;-73
2023/01/24 08:42:20;;;;;;;23.35;14.25;;;0.50;99.90;;;;;;493972;241;27463;-73
2023/01/24 08:44:22;;;;;;;26.02;15.55;;;0.40;99.90;;;;;;494048;241;27511;-73
2023/01/24 08:46:23;;;;;;;22.75;14.38;;;0.50;99.90;;;;;;494046;241;27450;-73
2023/01/24 08:48:24;;;;;;;28.60;15.88;;;0.40;99.90;;;;;;494037;241;27519;-73
2023/01/24 08:50:25;;;;;;;29.12;15.70;;;0.50;99.90;;;;;;494002;241;27538;-73
2023/01/24 08:52:27;;;;;;;24.40;15.75;;;0.50;99.90;;;;;;494061;241;27576;-73
2023/01/24 08:54:28;;;;;;;28.40;16.77;;;0.50;99.90;;;;;;493975;241;28011;-73
2023/01/24 08:56:29;;;;;;;28.73;15.65;;;0.50;99.90;;;;;;494040;241;27930;-73
2023/01/24 08:58:33;;;;;;;21.92;15.05;;;0.50;99.90;;;;;;494016;241;27501;-73
2023/01/24 09:00:32;;;;;;;27.05;14.77;;;0.50;99.90;;;;;;493844;241;27536;-73
2023/01/24 09:02:36;;;;;;;29.10;16.65;;;0.50;99.90;;;;;;494049;241;27576;-73
2023/01/24 09:04:34;;;;;;;26.05;15.73;;;0.60;99.90;;;;;;493725;241;27515;-73
2023/01/24 09:06:35;;;;;;;26.90;15.98;;;0.60;99.90;;;;;;494021;241;27570;-73
2023/01/24 09:08:37;;;;;;;27.85;15.45;;;0.60;99.90;;;;;;494030;241;27952;-73
2023/01/24 09:10:38;;;;;;;30.00;16.15;;;0.60;99.90;;;;;;494021;241;28687;-73
2023/01/24 09:12:39;;;;;;;28.62;16.00;;;0.70;99.90;;;;;;494018;241;27580;-73
2023/01/24 09:14:41;;;;;;;31.90;17.37;;;0.60;99.90;;;;;;494013;241;27511;-73
2023/01/24 09:16:42;;;;;;;26.20;16.52;;;0.50;99.90;;;;;;494007;241;27556;-73
2023/01/24 09:18:43;;;;;;;26.73;16.30;;;0.60;99.90;;;;;;494012;241;27497;-73
2023/01/24 09:20:44;;;;;;;25.85;16.25;;;0.70;99.90;;;;;;494005;241;27609;-73
2023/01/24 09:22:46;;;;;;;29.48;17.37;;;0.70;99.90;;;;;;494028;241;27609;-73
2023/01/24 09:24:47;;;;;;;27.35;16.05;;;0.80;99.90;;;;;;494017;241;27985;-73
2023/01/24 09:26:48;;;;;;;26.70;15.85;;;0.70;99.90;;;;;;494001;241;28001;-73
2023/01/24 09:28:49;;;;;;;25.05;15.70;;;0.80;99.90;;;;;;494006;241;27585;-73
2023/01/24 09:30:51;;;;;;;25.23;14.35;;;0.80;99.90;;;;;;494005;241;27569;-73
2023/01/24 09:32:52;;;;;;;30.48;15.30;;;0.80;99.90;;;;;;493973;241;27524;-73
2023/01/24 09:34:53;;;;;;;26.20;15.80;;;0.70;99.90;;;;;;494001;241;27506;-73
2023/01/24 09:36:54;;;;;;;28.67;16.87;;;0.70;99.90;;;;;;494007;241;27603;-73
2023/01/24 09:38:56;;;;;;;28.75;16.25;;;0.80;99.90;;;;;;494007;241;27596;-74
2023/01/24 09:40:57;;;;;;;25.20;15.38;;;0.80;99.90;;;;;;494010;237;28045;-73
2023/01/24 09:42:58;;;;;;;24.87;15.35;;;0.80;99.90;;;;;;494016;240;27939;-73
2023/01/24 09:44:59;;;;;;;24.75;15.32;;;0.80;99.90;;;;;;494018;241;27502;-73
2023/01/24 09:47:01;;;;;;;32.15;17.00;;;0.80;99.90;;;;;;493978;241;27478;-73
2023/01/24 09:49:02;;;;;;;26.08;16.50;;;0.90;99.90;;;;;;494004;241;27580;-73
2023/01/24 09:51:03;;;;;;;32.40;16.05;;;0.90;99.90;;;;;;493966;241;27509;-73
2023/01/24 09:53:04;;;;;;;23.50;15.00;;;0.90;99.90;;;;;;493944;241;27512;-72
2023/01/24 09:55:06;;;;;;;26.45;15.95;;;0.80;99.90;;;;;;493941;241;28028;-73
2023/01/24 09:57:07;;;;;;;30.37;16.55;;;0.90;99.90;;;;;;493809;241;27957;-73
2023/01/24 09:59:09;;;;;;;29.25;15.98;;;0.90;99.90;;;;;;493885;241;27968;-72
2023/01/24 10:01:09;;;;;;;26.58;16.45;;;0.90;99.90;;;;;;493917;241;27498;-73
2023/01/24 10:03:11;;;;;;;27.37;16.10;;;0.90;99.90;;;;;;493998;241;27481;-74
2023/01/24 10:05:12;;;;;;;25.98;15.88;;;0.90;99.90;;;;;;493985;241;27518;-73
2023/01/24 10:07:13;;;;;;;26.12;15.93;;;0.90;99.90;;;;;;494029;241;27480;-73
2023/01/24 10:09:14;;;;;;;28.42;16.23;;;1.00;99.90;;;;;;494030;241;27525;-73
2023/01/24 10:11:16;;;;;;;30.02;16.58;;;0.80;99.90;;;;;;494010;241;28716;-73
2023/01/24 10:13:17;;;;;;;24.90;15.32;;;0.80;99.90;;;;;;494016;241;29120;-73
2023/01/24 10:15:18;;;;;;;28.83;15.82;;;1.00;99.90;;;;;;494037;241;27497;-73
2023/01/24 10:17:19;;;;;;;30.25;16.45;;;1.00;99.90;;;;;;494026;241;27469;-74
2023/01/24 10:19:21;;;;;;;32.20;16.75;;;1.00;99.90;;;;;;494010;241;27521;-73
2023/01/24 10:21:22;;;;;;;25.42;15.70;;;0.90;99.90;;;;;;493977;241;27530;-73
2023/01/24 10:23:23;;;;;;;26.87;16.42;;;0.80;99.90;;;;;;493970;241;27546;-72
2023/01/24 10:25:24;;;;;;;28.38;15.02;;;0.80;99.90;;;;;;494012;241;27612;-73
2023/01/24 10:27:26;;;;;;;28.05;16.67;;;0.80;99.90;;;;;;494008;241;27917;-73
2023/01/24 10:29:27;;;;;;;27.13;16.62;;;0.90;99.90;;;;;;494011;241;28072;-73
2023/01/24 10:31:28;;;;;;;28.08;15.93;;;0.90;99.90;;;;;;494021;241;27514;-73
2023/01/24 10:33:30;;;;;;;26.50;15.55;;;0.90;99.90;;;;;;494002;237;27470;-72
2023/01/24 10:35:31;;;;;;;21.62;13.90;;;1.00;99.90;;;;;;494013;241;27510;-73
2023/01/24 10:37:33;;;;;;;28.42;16.30;;;1.00;99.90;;;;;;494010;241;27472;-73
2023/01/24 10:39:33;;;;;;;34.08;17.95;;;0.90;99.90;;;;;;494025;241;27489;-73
2023/01/24 10:41:35;;;;;;;31.15;17.55;;;0.90;99.90;;;;;;493995;241;27612;-73
2023/01/24 10:43:36;;;;;;;26.85;15.82;;;0.90;99.90;;;;;;494014;241;27909;-73
2023/01/24 10:45:37;;;;;;;26.95;16.98;;;1.00;99.90;;;;;;493999;241;27983;-73
2023/01/24 10:47:38;;;;;;;27.23;16.55;;;0.90;99.90;;;;;;493963;241;27469;-73
2023/01/24 10:49:40;;;;;;;28.27;17.75;;;0.80;99.90;;;;;;494009;241;27588;-73
2023/01/24 10:51:41;;;;;;;31.73;17.00;;;0.80;99.90;;;;;;493991;241;27563;-73